createdAt,value
2022-09-22T00:01:21.165Z,10.37
2022-09-22T00:03:53.105Z,10.11
2022-09-22T00:06:25.792Z,9.74
2022-09-22T00:09:00.500Z,9.62
2022-09-22T00:11:36.064Z,9.71
2022-09-22T00:14:27.028Z,9.96
2022-09-22T00:17:00.326Z,10.12
2022-09-22T00:19:29.934Z,10.20
2022-09-22T00:21:57.245Z,10.32
2022-09-22T00:24:26.004Z,10.40
2022-09-22T00:26:57.259Z,10.49
2022-09-22T00:29:25.043Z,10.51
2022-09-22T00:31:52.061Z,10.53
2022-09-22T00:34:21.390Z,10.57
2022-09-22T00:36:48.937Z,10.63
2022-09-22T00:39:17.092Z,10.61
2022-09-22T00:41:47.189Z,10.63
2022-09-22T00:44:42.692Z,10.70
2022-09-22T00:47:34.350Z,10.72
2022-09-22T00:50:00.810Z,10.76
2022-09-22T00:52:37.381Z,10.82
2022-09-22T00:55:08.814Z,10.86
2022-09-22T00:57:38.507Z,10.84
2022-09-22T01:00:08.114Z,10.82
2022-09-22T01:02:35.140Z,10.75
2022-09-22T01:05:01.745Z,10.53
2022-09-22T01:07:30.920Z,10.52
2022-09-22T01:09:57.953Z,10.56
2022-09-22T01:12:27.587Z,10.61
2022-09-22T01:15:10.231Z,10.64
2022-09-22T01:18:12.882Z,10.65
2022-09-22T01:20:58.026Z,10.64
2022-09-22T01:24:02.009Z,10.64
2022-09-22T01:27:03.112Z,10.67
2022-09-22T01:29:38.929Z,10.64
2022-09-22T01:32:48.686Z,10.65
2022-09-22T01:35:15.201Z,10.69
2022-09-22T01:38:05.057Z,10.70
2022-09-22T01:40:48.073Z,10.65
2022-09-22T01:43:30.492Z,10.68
2022-09-22T01:46:01.619Z,10.69
2022-09-22T01:48:33.699Z,10.64
2022-09-22T01:51:12.635Z,10.63
2022-09-22T01:53:44.113Z,10.54
2022-09-22T01:56:15.033Z,10.50
2022-09-22T01:58:49.993Z,10.56
2022-09-22T02:01:20.161Z,10.58
2022-09-22T02:04:09.663Z,10.69
2022-09-22T02:06:43.275Z,10.73
2022-09-22T02:09:14.899Z,10.76
2022-09-22T02:11:42.819Z,10.79
2022-09-22T02:14:09.796Z,10.82
2022-09-22T02:16:36.502Z,10.77
2022-09-22T02:19:13.379Z,10.79
2022-09-22T02:21:43.106Z,10.79
2022-09-22T02:24:36.245Z,10.86
2022-09-22T02:27:10.415Z,10.85
2022-09-22T02:29:43.370Z,10.82
2022-09-22T02:32:14.022Z,10.82
2022-09-22T02:34:40.905Z,10.81
2022-09-22T02:37:27.684Z,10.81
2022-09-22T02:40:04.338Z,10.80
2022-09-22T02:42:41.029Z,10.77
2022-09-22T02:45:19.934Z,10.68
2022-09-22T02:48:05.804Z,10.56
2022-09-22T02:50:34.177Z,10.46
2022-09-22T02:53:10.854Z,10.29
2022-09-22T02:55:37.610Z,10.27
2022-09-22T02:58:04.189Z,10.30
2022-09-22T03:00:31.347Z,10.21
2022-09-22T03:02:57.999Z,10.22
2022-09-22T03:05:24.682Z,10.22
2022-09-22T03:07:51.466Z,10.20
2022-09-22T03:10:18.105Z,10.20
2022-09-22T03:13:09.152Z,10.26
2022-09-22T03:15:31.974Z,10.28
2022-09-22T03:17:58.604Z,10.32
2022-09-22T03:20:25.340Z,10.29
2022-09-22T03:22:54.110Z,10.32
2022-09-22T03:25:20.846Z,10.29
2022-09-22T03:27:48.160Z,10.35
2022-09-22T03:30:15.110Z,10.40
2022-09-22T03:32:41.721Z,10.48
2022-09-22T03:35:09.001Z,10.47
2022-09-22T03:37:35.897Z,10.50
2022-09-22T03:40:03.821Z,10.49
2022-09-22T03:42:30.610Z,10.46
2022-09-22T03:44:57.185Z,10.49
2022-09-22T03:47:23.828Z,10.52
2022-09-22T03:49:50.477Z,10.46
2022-09-22T03:52:17.289Z,10.40
2022-09-22T03:54:43.877Z,10.41
2022-09-22T03:57:10.429Z,10.43
2022-09-22T03:59:36.972Z,10.42
2022-09-22T04:02:04.566Z,10.44
2022-09-22T04:04:33.910Z,10.42
2022-09-22T04:07:06.140Z,10.44
2022-09-22T04:09:33.655Z,10.45
2022-09-22T04:12:00.954Z,10.49
2022-09-22T04:14:27.684Z,10.44
2022-09-22T04:16:54.487Z,10.40
2022-09-22T04:19:21.143Z,10.38
2022-09-22T04:21:47.805Z,10.41
2022-09-22T04:24:14.454Z,10.42
2022-09-22T04:26:51.753Z,10.47
2022-09-22T04:29:27.664Z,10.49
2022-09-22T04:31:57.561Z,10.44
2022-09-22T04:34:24.268Z,10.46
2022-09-22T04:36:51.046Z,10.49
2022-09-22T04:39:22.963Z,10.50
2022-09-22T04:41:50.338Z,10.37
2022-09-22T04:44:16.912Z,10.17
2022-09-22T04:46:46.040Z,10.16
2022-09-22T04:49:39.152Z,10.14
2022-09-22T04:52:05.750Z,10.19
2022-09-22T04:54:32.572Z,10.29
2022-09-22T04:57:03.757Z,10.31
2022-09-22T04:59:32.552Z,10.36
2022-09-22T05:01:59.284Z,10.45
2022-09-22T05:04:26.130Z,10.48
2022-09-22T05:06:53.067Z,10.50
2022-09-22T05:09:20.820Z,10.61
2022-09-22T05:11:49.033Z,10.65
2022-09-22T05:14:16.099Z,10.70
2022-09-22T05:16:46.003Z,10.78
2022-09-22T05:19:12.698Z,10.79
2022-09-22T05:21:45.415Z,10.82
2022-09-22T05:24:12.237Z,10.84
2022-09-22T05:26:39.190Z,10.91
2022-09-22T05:29:08.463Z,10.99
2022-09-22T05:31:35.283Z,11.06
2022-09-22T05:34:07.484Z,11.14
2022-09-22T05:36:34.152Z,11.29
2022-09-22T05:39:00.852Z,11.38
2022-09-22T05:41:32.415Z,11.41
2022-09-22T05:43:59.056Z,11.47
2022-09-22T05:46:25.778Z,11.55
2022-09-22T05:48:52.386Z,11.61
2022-09-22T05:51:18.999Z,11.69
2022-09-22T05:53:45.628Z,11.74
2022-09-22T05:56:12.224Z,11.82
2022-09-22T05:58:39.981Z,11.88
2022-09-22T06:01:06.706Z,11.95
2022-09-22T06:03:33.438Z,12.03
2022-09-22T06:06:02.094Z,12.10
2022-09-22T06:08:28.704Z,12.13
2022-09-22T06:10:55.405Z,12.18
2022-09-22T06:13:22.024Z,12.19
2022-09-22T06:15:49.594Z,12.23
2022-09-22T06:18:23.431Z,12.25
2022-09-22T06:20:52.074Z,12.29
2022-09-22T06:23:21.514Z,12.30
2022-09-22T06:25:51.403Z,12.32
2022-09-22T06:28:18.017Z,12.35
2022-09-22T06:30:44.676Z,12.40
2022-09-22T06:33:11.733Z,12.39
2022-09-22T06:35:42.897Z,12.44
2022-09-22T06:38:14.921Z,12.46
2022-09-22T06:40:42.582Z,12.48
2022-09-22T06:43:17.137Z,12.53
2022-09-22T06:45:45.032Z,12.55
2022-09-22T06:48:12.116Z,12.61
2022-09-22T06:50:41.137Z,12.62
2022-09-22T06:53:15.065Z,12.71
2022-09-22T06:55:43.140Z,12.67
2022-09-22T06:58:11.917Z,12.78
2022-09-22T07:00:43.805Z,12.87
2022-09-22T07:03:24.494Z,12.90
2022-09-22T07:06:02.152Z,13.01
2022-09-22T07:08:31.533Z,13.06
2022-09-22T07:11:03.980Z,13.16
2022-09-22T07:13:39.865Z,13.20
2022-09-22T07:16:09.619Z,13.25
2022-09-22T07:18:40.312Z,13.30
2022-09-22T07:21:21.714Z,13.34
2022-09-22T07:23:50.116Z,13.43
2022-09-22T07:26:20.044Z,13.51
2022-09-22T07:28:50.315Z,13.56
2022-09-22T07:31:17.649Z,13.62
2022-09-22T07:33:46.347Z,13.68
2022-09-22T07:36:21.463Z,13.76
2022-09-22T07:38:50.374Z,13.82
2022-09-22T07:41:41.858Z,13.89
2022-09-22T07:44:31.957Z,13.98
2022-09-22T07:46:59.435Z,14.08
2022-09-22T07:49:26.740Z,14.10
2022-09-22T07:51:54.937Z,14.12
2022-09-22T07:54:22.599Z,14.20
2022-09-22T07:56:50.141Z,14.28
2022-09-22T07:59:16.875Z,14.37
2022-09-22T08:01:51.529Z,14.41
2022-09-22T08:04:22.680Z,14.49
2022-09-22T08:06:55.026Z,14.59
2022-09-22T08:09:26.378Z,14.50
2022-09-22T08:11:53.724Z,14.60
2022-09-22T08:14:23.512Z,14.73
2022-09-22T08:16:54.008Z,14.83
2022-09-22T08:19:23.716Z,14.89
2022-09-22T08:21:56.190Z,15.00
2022-09-22T08:24:23.503Z,15.01
2022-09-22T08:26:52.767Z,15.00
2022-09-22T08:29:20.255Z,14.89
2022-09-22T08:31:47.598Z,14.93
2022-09-22T08:34:18.596Z,15.12
2022-09-22T08:36:49.102Z,15.30
2022-09-22T08:39:17.840Z,15.31
2022-09-22T08:42:13.884Z,15.33
2022-09-22T08:45:04.022Z,15.47
2022-09-22T08:47:55.645Z,15.50
2022-09-22T08:50:49.176Z,15.15
2022-09-22T08:53:21.557Z,15.42
2022-09-22T08:55:54.510Z,15.50
2022-09-22T08:58:37.531Z,15.73
2022-09-22T09:01:43.113Z,15.68
2022-09-22T09:04:37.355Z,15.82
2022-09-22T09:07:48.278Z,15.96
2022-09-22T09:10:39.855Z,16.12
2022-09-22T09:13:21.602Z,16.11
2022-09-22T09:16:08.847Z,16.20
2022-09-22T09:18:39.381Z,15.84
2022-09-22T09:21:13.446Z,16.24
2022-09-22T09:26:39.541Z,16.57
2022-09-22T09:29:14.051Z,16.03
2022-09-22T09:31:48.858Z,16.31
2022-09-22T09:34:18.589Z,16.14
2022-09-22T09:36:52.705Z,16.47
2022-09-22T09:39:30.588Z,16.78
2022-09-22T09:41:58.420Z,17.03
2022-09-22T09:44:33.315Z,17.18
2022-09-22T09:47:24.420Z,17.10
2022-09-22T09:49:53.082Z,17.13
2022-09-22T09:52:20.244Z,17.13
2022-09-22T09:54:51.907Z,17.03
2022-09-22T09:57:31.101Z,17.27
2022-09-22T10:00:31.885Z,17.38
2022-09-22T10:03:13.746Z,16.51
2022-09-22T10:05:41.025Z,16.28
2022-09-22T10:08:26.268Z,16.45
2022-09-22T10:10:59.020Z,16.49
2022-09-22T10:13:35.604Z,16.28
2022-09-22T10:16:12.179Z,16.56
2022-09-22T10:18:40.788Z,16.88
2022-09-22T10:21:28.320Z,16.62
2022-09-22T10:24:04.321Z,16.74
2022-09-22T10:26:36.461Z,16.77
2022-09-22T10:29:12.454Z,16.98
2022-09-22T10:31:40.584Z,17.20
2022-09-22T10:34:30.850Z,17.13
2022-09-22T10:37:02.027Z,17.29
2022-09-22T10:39:52.649Z,17.23
2022-09-22T10:42:25.772Z,17.16
2022-09-22T10:44:53.330Z,17.02
2022-09-22T10:47:31.365Z,16.56
2022-09-22T10:50:38.382Z,17.08
2022-09-22T10:56:37.766Z,17.37
2022-09-22T10:59:20.137Z,17.20
2022-09-22T11:02:25.148Z,17.40
2022-09-22T11:05:49.994Z,17.50
2022-09-22T11:08:37.865Z,17.64
2022-09-22T11:11:39.809Z,17.21
2022-09-22T11:14:40.717Z,17.32
2022-09-22T11:17:22.624Z,17.29
2022-09-22T11:20:05.373Z,16.42
2022-09-22T11:22:55.157Z,16.47
2022-09-22T11:25:43.096Z,16.62
2022-09-22T11:28:33.487Z,16.54
2022-09-22T11:31:03.372Z,16.40
2022-09-22T11:33:36.067Z,16.42
2022-09-22T11:36:41.892Z,16.49
2022-09-22T11:39:51.382Z,16.16
2022-09-22T11:42:35.331Z,16.45
2022-09-22T11:45:18.045Z,16.44
2022-09-22T11:48:03.942Z,16.64
2022-09-22T11:50:39.637Z,16.72
2022-09-22T11:53:24.589Z,16.75
2022-09-22T11:56:26.685Z,16.80
2022-09-22T11:59:02.641Z,16.79
2022-09-22T12:01:37.621Z,16.76
2022-09-22T12:04:33.484Z,16.92
2022-09-22T12:07:05.225Z,16.90
2022-09-22T12:09:51.113Z,16.56
2022-09-22T12:12:23.492Z,16.93
2022-09-22T12:15:19.742Z,16.68
2022-09-22T12:17:59.804Z,16.48
2022-09-22T12:20:35.872Z,16.63
2022-09-22T12:23:28.513Z,16.37
2022-09-22T12:26:05.917Z,16.34
2022-09-22T12:28:41.752Z,16.48
2022-09-22T12:31:15.842Z,16.53
2022-09-22T12:33:58.910Z,16.91
2022-09-22T12:36:37.217Z,17.08
2022-09-22T12:39:18.846Z,17.03
2022-09-22T12:41:49.272Z,17.04
2022-09-22T12:44:28.381Z,17.67
2022-09-22T12:47:04.672Z,18.08
2022-09-22T12:49:31.438Z,17.70
2022-09-22T12:51:58.725Z,17.34
2022-09-22T12:54:26.313Z,17.54
2022-09-22T12:57:20.490Z,17.41
2022-09-22T12:59:56.677Z,18.01
2022-09-22T13:02:23.513Z,18.50
2022-09-22T13:04:59.181Z,17.88
2022-09-22T13:07:41.016Z,18.09
2022-09-22T13:10:26.681Z,17.66
2022-09-22T13:13:02.621Z,17.54
2022-09-22T13:15:34.274Z,17.99
2022-09-22T13:18:01.335Z,18.72
2022-09-22T13:20:27.998Z,18.36
2022-09-22T13:22:56.773Z,19.03
2022-09-22T13:25:28.228Z,20.05
2022-09-22T13:28:09.965Z,19.95
2022-09-22T13:30:41.054Z,20.22
2022-09-22T13:33:26.002Z,19.93
2022-09-22T13:36:01.614Z,19.59
2022-09-22T13:38:29.890Z,19.96
2022-09-22T13:40:56.610Z,20.00
2022-09-22T13:43:40.297Z,19.05
2022-09-22T13:46:23.999Z,18.75
2022-09-22T13:48:53.497Z,19.46
2022-09-22T13:51:21.195Z,19.18
2022-09-22T13:53:56.446Z,18.68
2022-09-22T13:56:25.297Z,19.10
2022-09-22T13:58:57.130Z,18.77
2022-09-22T14:01:26.795Z,18.13
2022-09-22T14:03:55.195Z,18.06
2022-09-22T14:06:25.733Z,17.41
2022-09-22T14:08:56.161Z,17.15
2022-09-22T14:11:27.504Z,17.52
2022-09-22T14:13:54.565Z,17.37
2022-09-22T14:16:28.385Z,17.44
2022-09-22T14:19:04.087Z,17.11
2022-09-22T14:21:34.254Z,17.76
2022-09-22T14:24:01.808Z,17.70
2022-09-22T14:26:34.133Z,18.50
2022-09-22T14:29:15.244Z,18.90
2022-09-22T14:31:46.102Z,18.67
2022-09-22T14:34:21.106Z,18.71
2022-09-22T14:36:50.376Z,17.66
2022-09-22T14:39:20.921Z,17.77
2022-09-22T14:41:59.665Z,17.91
2022-09-22T14:44:41.852Z,18.12
2022-09-22T14:47:21.705Z,18.40
2022-09-22T14:50:19.225Z,17.43
2022-09-22T14:53:09.864Z,17.33
2022-09-22T14:55:48.880Z,17.56
2022-09-22T14:58:24.538Z,17.34
2022-09-22T15:01:16.644Z,17.48
2022-09-22T15:04:05.535Z,17.41
2022-09-22T15:06:37.687Z,17.76
2022-09-22T15:09:05.187Z,17.24
2022-09-22T15:11:53.745Z,17.39
2022-09-22T15:14:41.537Z,16.94
2022-09-22T15:17:51.887Z,16.76
2022-09-22T15:20:19.259Z,16.86
2022-09-22T15:22:46.331Z,16.94
2022-09-22T15:25:16.597Z,17.20
2022-09-22T15:27:43.682Z,16.58
2022-09-22T15:30:16.257Z,16.49
2022-09-22T15:32:46.404Z,16.93
2022-09-22T15:35:13.494Z,17.14
2022-09-22T15:37:42.641Z,16.54
2022-09-22T15:40:16.638Z,16.85
2022-09-22T15:43:08.702Z,16.60
2022-09-22T15:45:33.952Z,17.03
2022-09-22T15:48:01.527Z,16.97
2022-09-22T15:50:30.436Z,17.12
2022-09-22T15:52:57.089Z,16.59
2022-09-22T15:55:26.132Z,16.63
2022-09-22T15:57:56.742Z,16.81
2022-09-22T16:00:27.545Z,16.98
2022-09-22T16:02:54.665Z,16.99
2022-09-22T16:05:21.402Z,16.89
2022-09-22T16:07:52.985Z,16.40
2022-09-22T16:10:23.902Z,16.46
2022-09-22T16:12:50.671Z,16.15
2022-09-22T16:15:17.543Z,16.34
2022-09-22T16:17:45.935Z,16.03
2022-09-22T16:20:15.959Z,15.78
2022-09-22T16:22:44.936Z,15.88
2022-09-22T16:25:12.521Z,16.19
2022-09-22T16:27:39.182Z,16.29
2022-09-22T16:30:06.552Z,16.17
2022-09-22T16:32:36.130Z,15.88
2022-09-22T16:35:03.741Z,15.93
2022-09-22T16:37:30.377Z,15.80
2022-09-22T16:39:59.798Z,15.84
2022-09-22T16:42:26.472Z,15.93
2022-09-22T16:44:53.301Z,16.01
2022-09-22T16:47:21.149Z,16.00
2022-09-22T16:49:49.505Z,16.03
2022-09-22T16:52:16.107Z,15.91
2022-09-22T16:54:42.770Z,15.85
2022-09-22T16:57:09.388Z,15.54
2022-09-22T16:59:38.192Z,15.39
2022-09-22T17:02:04.974Z,15.51
2022-09-22T17:04:32.307Z,14.97
2022-09-22T17:07:02.013Z,15.09
2022-09-22T17:09:31.598Z,15.23
2022-09-22T17:11:58.114Z,15.18
2022-09-22T17:14:25.485Z,15.07
2022-09-22T17:16:55.338Z,15.22
2022-09-22T17:19:27.663Z,15.26
2022-09-22T17:21:55.592Z,15.39
2022-09-22T17:24:25.708Z,15.50
2022-09-22T17:26:57.541Z,15.48
2022-09-22T17:29:26.773Z,15.43
2022-09-22T17:32:02.649Z,15.43
2022-09-22T17:34:32.870Z,15.38
2022-09-22T17:37:00.436Z,15.38
2022-09-22T17:39:28.752Z,15.21
2022-09-22T17:41:55.887Z,15.07
2022-09-22T17:44:23.149Z,15.09
2022-09-22T17:47:12.209Z,15.07
2022-09-22T17:49:58.162Z,15.12
2022-09-22T17:52:40.181Z,15.12
2022-09-22T17:55:20.218Z,15.07
2022-09-22T17:57:46.889Z,14.94
2022-09-22T18:00:17.497Z,14.76
2022-09-22T18:02:45.005Z,14.82
2022-09-22T18:05:14.789Z,14.73
2022-09-22T18:07:42.310Z,14.70
2022-09-22T18:10:12.267Z,14.70
2022-09-22T18:12:38.988Z,14.57
2022-09-22T18:15:12.794Z,14.58
2022-09-22T18:17:44.061Z,14.58
2022-09-22T18:20:18.262Z,14.64
2022-09-22T18:22:47.819Z,14.67
2022-09-22T18:25:16.532Z,14.67
2022-09-22T18:27:43.476Z,14.65
2022-09-22T18:30:13.163Z,14.58
2022-09-22T18:32:44.859Z,14.49
2022-09-22T18:35:12.821Z,14.42
2022-09-22T18:37:42.498Z,14.42
2022-09-22T18:40:10.131Z,14.41
2022-09-22T18:42:36.877Z,14.33
2022-09-22T18:45:04.128Z,14.29
2022-09-22T18:47:30.926Z,14.27
2022-09-22T18:49:58.266Z,14.28
2022-09-22T18:52:25.523Z,14.28
2022-09-22T18:54:55.774Z,14.27
2022-09-22T18:57:25.579Z,14.21
2022-09-22T18:59:53.838Z,14.17
2022-09-22T19:02:21.408Z,14.19
2022-09-22T19:04:49.055Z,14.11
2022-09-22T19:07:37.761Z,14.11
2022-09-22T19:10:10.007Z,14.05
2022-09-22T19:12:39.291Z,14.02
2022-09-22T19:15:09.345Z,13.97
2022-09-22T19:17:40.740Z,13.97
2022-09-22T19:20:08.065Z,13.97
2022-09-22T19:22:35.089Z,13.93
2022-09-22T19:25:04.227Z,13.96
2022-09-22T19:27:33.230Z,13.95
2022-09-22T19:30:00.005Z,13.93
2022-09-22T19:32:26.662Z,13.91
2022-09-22T19:34:54.839Z,13.88
2022-09-22T19:37:21.575Z,13.83
2022-09-22T19:39:50.825Z,13.82
2022-09-22T19:42:18.686Z,13.83
2022-09-22T19:44:45.278Z,13.82
2022-09-22T19:47:11.930Z,13.86
2022-09-22T19:49:38.542Z,13.77
2022-09-22T19:52:05.170Z,13.80
2022-09-22T19:54:31.745Z,13.80
2022-09-22T19:56:59.165Z,13.78
2022-09-22T19:59:25.826Z,13.76
2022-09-22T20:01:55.029Z,13.76
2022-09-22T20:04:23.414Z,13.78
2022-09-22T20:06:50.162Z,13.81
2022-09-22T20:09:19.435Z,13.80
2022-09-22T20:11:48.843Z,13.76
2022-09-22T20:14:27.177Z,13.77
2022-09-22T20:16:56.969Z,13.76
2022-09-22T20:19:25.866Z,13.76
2022-09-22T20:21:53.267Z,13.79
2022-09-22T20:24:22.021Z,13.79
2022-09-22T20:26:48.771Z,13.77
2022-09-22T20:29:21.176Z,13.68
2022-09-22T20:31:47.959Z,13.70
2022-09-22T20:34:15.362Z,13.69
2022-09-22T20:36:44.851Z,13.68
2022-09-22T20:39:20.093Z,13.62
2022-09-22T20:41:46.684Z,13.62
2022-09-22T20:44:16.757Z,13.59
2022-09-22T20:46:47.873Z,13.56
2022-09-22T20:49:15.143Z,13.48
2022-09-22T20:51:42.393Z,13.47
2022-09-22T20:54:09.164Z,13.48
2022-09-22T20:56:39.436Z,13.40
2022-09-22T20:59:08.680Z,13.38
2022-09-22T21:01:35.410Z,13.36
2022-09-22T21:04:02.132Z,13.39
2022-09-22T21:06:30.824Z,13.31
2022-09-22T21:09:16.205Z,13.35
2022-09-22T21:11:44.141Z,13.36
2022-09-22T21:14:11.907Z,13.34
2022-09-22T21:16:41.110Z,13.29
2022-09-22T21:19:09.977Z,13.25
2022-09-22T21:21:39.326Z,13.23
2022-09-22T21:24:11.032Z,13.20
2022-09-22T21:26:40.037Z,13.19
2022-09-22T21:29:10.181Z,13.16
2022-09-22T21:31:37.343Z,13.18
2022-09-22T21:34:04.302Z,13.16
2022-09-22T21:36:31.035Z,13.15
2022-09-22T21:38:59.604Z,13.15
2022-09-22T21:41:28.870Z,13.12
2022-09-22T21:43:57.227Z,13.13
2022-09-22T21:46:29.603Z,13.09
2022-09-22T21:48:59.311Z,13.05
2022-09-22T21:51:25.963Z,13.09
2022-09-22T21:53:53.772Z,13.16
2022-09-22T21:56:22.542Z,13.18
2022-09-22T21:58:51.474Z,13.20
2022-09-22T22:01:25.320Z,13.20
2022-09-22T22:03:53.761Z,13.22
2022-09-22T22:06:51.977Z,13.31
2022-09-22T22:09:22.639Z,13.30
2022-09-22T22:11:57.981Z,13.29
2022-09-22T22:14:26.493Z,13.29
2022-09-22T22:16:54.741Z,13.30
2022-09-22T22:19:24.830Z,13.36
2022-09-22T22:21:51.903Z,13.43
2022-09-22T22:24:24.444Z,13.38
2022-09-22T22:26:51.679Z,13.35
2022-09-22T22:29:19.479Z,13.31
2022-09-22T22:31:48.914Z,13.18
2022-09-22T22:34:17.473Z,13.14
2022-09-22T22:36:44.438Z,13.17
2022-09-22T22:39:12.160Z,13.12
2022-09-22T22:41:40.450Z,13.09
2022-09-22T22:44:08.314Z,13.12
2022-09-22T22:46:35.445Z,13.04
2022-09-22T22:49:02.186Z,13.09
2022-09-22T22:51:28.784Z,13.10
2022-09-22T22:53:55.732Z,13.14
2022-09-22T22:56:26.636Z,13.11
2022-09-22T22:58:53.732Z,13.11
2022-09-22T23:01:28.869Z,13.11
2022-09-22T23:04:07.099Z,13.08
2022-09-22T23:06:39.486Z,13.12
2022-09-22T23:09:08.279Z,13.09
2022-09-22T23:11:37.653Z,13.12
2022-09-22T23:14:07.272Z,13.09
2022-09-22T23:16:40.180Z,13.11
2022-09-22T23:19:10.494Z,13.10
2022-09-22T23:21:37.144Z,13.12
2022-09-22T23:24:05.396Z,13.10
2022-09-22T23:26:32.166Z,13.18
2022-09-22T23:28:59.472Z,13.22
2022-09-22T23:31:26.310Z,13.17
2022-09-22T23:33:53.513Z,13.22
2022-09-22T23:36:28.142Z,13.27
2022-09-22T23:38:56.743Z,13.28
2022-09-22T23:41:23.613Z,13.35
2022-09-22T23:43:50.700Z,13.40
2022-09-22T23:46:17.435Z,13.42
2022-09-22T23:48:44.168Z,13.36
2022-09-22T23:51:10.725Z,13.40
2022-09-22T23:53:37.637Z,13.46
2022-09-22T23:56:06.331Z,13.44
2022-09-22T23:58:33.438Z,13.44
